Time;durP1;ratioP1;P1;durP2;ratioP2;P2;SDS_P1;SDS_P2;PMS_P1;PMS_P2;Temp;Humidity;BMP_temperature;BMP_pressure;BME280_temperature;BME280_humidity;BME280_pressure;Samples;Min_cycle;Max_cycle;Signal;HPM_P1;HPM_P2
2022/03/11 00:01:29;;;;;;;18.43;13.70;;;6.00;1.30;;;;;;2615803;54;20393;-79
2022/03/11 00:03:55;;;;;;;18.90;13.97;;;5.90;1.50;;;;;;2616135;47;20522;-79
2022/03/11 00:06:21;;;;;;;19.67;13.60;;;5.80;2.40;;;;;;2615755;47;22595;-79
2022/03/11 00:08:49;;;;;;;17.20;13.17;;;5.70;2.70;;;;;;2617035;54;20407;-80
2022/03/11 00:11:16;;;;;;;17.00;12.80;;;5.60;3.10;;;;;;2615215;54;20197;-81
2022/03/11 00:13:42;;;;;;;17.37;13.40;;;5.70;3.30;;;;;;2614489;54;20503;-78
2022/03/11 00:16:10;;;;;;;21.20;13.57;;;5.50;4.50;;;;;;2615215;54;20420;-79
2022/03/11 00:18:36;;;;;;;20.33;13.60;;;5.50;4.60;;;;;;2614825;47;20953;-78
2022/03/11 00:21:03;;;;;;;20.10;14.60;;;5.40;4.70;;;;;;2616137;47;20471;-79
2022/03/11 00:23:29;;;;;;;17.17;13.20;;;5.30;8.80;;;;;;2616305;47;20162;-80
2022/03/11 00:25:55;;;;;;;20.90;14.43;;;5.50;5.40;;;;;;2614873;54;20990;-79
2022/03/11 00:28:44;;;;;;;22.33;14.73;;;5.40;5.70;;;;;;2613758;47;20409;-79
2022/03/11 00:31:10;;;;;;;18.13;13.70;;;5.30;6.60;;;;;;2613259;54;20155;-80
2022/03/11 00:33:38;;;;;;;24.00;13.83;;;5.20;7.40;;;;;;2613758;47;20509;-79
2022/03/11 00:36:04;;;;;;;27.97;15.10;;;5.20;6.60;;;;;;2612999;47;20995;-79
2022/03/11 00:38:30;;;;;;;22.13;13.90;;;5.20;7.70;;;;;;2614147;54;20529;-80
2022/03/11 00:40:57;;;;;;;24.73;14.37;;;5.20;7.30;;;;;;2614957;39;20899;-78
2022/03/11 00:43:23;;;;;;;16.50;14.00;;;4.90;8.90;;;;;;2615219;54;20431;-78
2022/03/11 00:45:49;;;;;;;19.03;14.10;;;4.80;10.60;;;;;;2613511;54;20427;-79
2022/03/11 00:48:15;;;;;;;19.40;13.07;;;4.70;10.40;;;;;;2614066;47;20406;-80
2022/03/11 00:50:41;;;;;;;21.73;14.13;;;4.70;10.90;;;;;;2615244;54;20408;-79
2022/03/11 00:53:07;;;;;;;18.30;14.50;;;4.70;11.60;;;;;;2614066;51;20411;-79
2022/03/11 00:55:36;;;;;;;14.87;12.50;;;4.60;12.00;;;;;;2614210;54;20525;-79
2022/03/11 00:58:02;;;;;;;23.10;14.23;;;4.60;12.70;;;;;;2613681;54;20980;-78
2022/03/11 01:00:29;;;;;;;20.80;14.40;;;4.60;12.20;;;;;;2613158;54;20411;-78
2022/03/11 01:02:54;;;;;;;17.33;13.10;;;4.60;11.40;;;;;;2614949;47;21081;-79
2022/03/11 01:05:23;;;;;;;19.37;14.33;;;4.70;11.50;;;;;;2612116;54;20489;-79
2022/03/11 01:07:49;;;;;;;19.90;13.53;;;4.70;12.40;;;;;;2615125;39;20787;-79
2022/03/11 01:10:16;;;;;;;22.53;15.07;;;4.60;11.90;;;;;;2614989;54;20446;-80
2022/03/11 01:12:43;;;;;;;21.33;13.80;;;4.50;12.40;;;;;;2614647;54;20395;-79
2022/03/11 01:15:09;;;;;;;19.27;13.67;;;4.40;13.00;;;;;;2613474;47;20411;-80
2022/03/11 01:17:35;;;;;;;22.17;13.47;;;4.30;13.80;;;;;;2613806;54;20415;-78
2022/03/11 01:20:03;;;;;;;22.63;14.90;;;4.30;14.50;;;;;;2615647;47;20435;-80
2022/03/11 01:22:30;;;;;;;19.07;14.10;;;4.10;15.30;;;;;;2613575;47;20431;-79
2022/03/11 01:24:56;;;;;;;18.90;13.03;;;4.20;15.30;;;;;;2613196;54;20391;-79
2022/03/11 01:27:25;;;;;;;22.60;13.47;;;4.20;15.00;;;;;;2614471;54;20782;-79
2022/03/11 01:29:51;;;;;;;19.30;12.60;;;4.20;15.70;;;;;;2615682;54;20388;-79
2022/03/11 01:32:17;;;;;;;19.30;13.30;;;4.20;15.40;;;;;;2613152;47;20427;-79
2022/03/11 01:34:43;;;;;;;20.40;12.70;;;4.20;15.00;;;;;;2614547;54;20426;-80
2022/03/11 01:37:09;;;;;;;17.27;11.87;;;4.30;13.80;;;;;;2614589;54;20524;-79
2022/03/11 01:39:37;;;;;;;19.13;13.90;;;4.30;13.20;;;;;;2615279;54;20453;-78
2022/03/11 01:42:03;;;;;;;21.90;13.30;;;4.50;12.80;;;;;;2615477;47;20416;-79
2022/03/11 01:44:29;;;;;;;18.80;13.43;;;4.40;12.70;;;;;;2615087;54;20416;-79
2022/03/11 01:46:55;;;;;;;14.80;11.57;;;4.60;12.20;;;;;;2615596;47;20547;-80
2022/03/11 01:49:22;;;;;;;18.53;12.77;;;4.70;11.60;;;;;;2614773;54;20964;-79
2022/03/11 01:51:48;;;;;;;17.70;12.40;;;4.60;11.90;;;;;;2614353;54;20458;-79
2022/03/11 01:54:16;;;;;;;16.20;12.67;;;4.60;12.10;;;;;;2614213;54;20443;-79
2022/03/11 01:56:42;;;;;;;15.47;12.80;;;4.50;12.60;;;;;;2614721;54;21090;-79
2022/03/11 01:59:11;;;;;;;18.53;12.30;;;4.50;13.00;;;;;;2614024;54;20531;-79
2022/03/11 02:01:38;;;;;;;17.50;12.43;;;4.40;13.60;;;;;;2614519;51;20940;-78
2022/03/11 02:04:05;;;;;;;24.00;13.80;;;4.40;14.40;;;;;;2615673;39;20892;-79
2022/03/11 02:06:31;;;;;;;20.80;15.03;;;4.30;15.00;;;;;;2616220;54;20989;-78
2022/03/11 02:08:58;;;;;;;18.53;13.47;;;4.20;15.50;;;;;;2615531;54;20431;-78
2022/03/11 02:11:24;;;;;;;16.70;12.33;;;4.20;15.80;;;;;;2612463;47;20467;-78
2022/03/11 02:13:55;;;;;;;20.77;13.80;;;4.10;17.20;;;;;;2614929;47;20423;-79
2022/03/11 02:16:30;;;;;;;20.00;14.30;;;4.10;17.10;;;;;;2615331;54;20404;-79
2022/03/11 02:19:24;;;;;;;22.23;14.53;;;4.00;18.70;;;;;;2616623;54;20474;-77
2022/03/11 02:21:53;;;;;;;20.03;13.70;;;3.90;19.90;;;;;;2614369;54;20411;-78
2022/03/11 02:24:19;;;;;;;17.57;13.33;;;4.10;18.80;;;;;;2615302;39;21010;-78
2022/03/11 02:26:45;;;;;;;21.20;12.60;;;4.00;18.10;;;;;;2613368;54;20633;-78
2022/03/11 02:29:12;;;;;;;14.73;12.60;;;4.00;19.80;;;;;;2614514;39;20941;-79
2022/03/11 02:31:38;;;;;;;18.97;12.30;;;3.90;20.50;;;;;;2613719;54;20505;-78
2022/03/11 02:34:05;;;;;;;20.13;13.30;;;3.80;20.80;;;;;;2615493;54;20395;-78
2022/03/11 02:36:32;;;;;;;17.67;11.83;;;3.70;21.10;;;;;;2616000;54;20153;-78
2022/03/11 02:39:24;;;;;;;18.27;12.97;;;3.80;20.20;;;;;;2616542;46;20446;-79
2022/03/11 02:41:51;;;;;;;15.10;10.10;;;4.00;19.40;;;;;;2614781;54;20407;-78
2022/03/11 02:44:17;;;;;;;16.03;11.23;;;4.10;14.70;;;;;;2613961;46;20944;-79
2022/03/11 02:46:43;;;;;;;17.10;11.00;;;4.40;13.80;;;;;;2615172;46;20438;-78
2022/03/11 02:49:10;;;;;;;16.60;11.30;;;4.50;11.00;;;;;;2613746;54;20515;-78
2022/03/11 02:51:36;;;;;;;14.60;9.50;;;4.70;9.70;;;;;;2614308;47;20442;-78
2022/03/11 02:54:03;;;;;;;21.80;9.60;;;4.80;8.00;;;;;;2615511;54;20470;-78
2022/03/11 02:56:29;;;;;;;12.50;10.60;;;5.10;5.80;;;;;;2615695;54;21059;-78
2022/03/11 02:58:54;;;;;;;13.30;10.33;;;5.30;4.50;;;;;;2614546;47;20427;-78
2022/03/11 03:01:20;;;;;;;10.70;8.97;;;5.50;3.50;;;;;;2615094;54;20151;-78
2022/03/11 03:03:47;;;;;;;14.60;9.90;;;5.50;2.80;;;;;;2614557;54;20166;-79
2022/03/11 03:06:40;;;;;;;11.37;9.07;;;5.70;2.20;;;;;;2614755;54;20158;-79
2022/03/11 03:09:06;;;;;;;15.67;9.60;;;5.70;1.70;;;;;;2615615;54;20452;-78
2022/03/11 03:11:34;;;;;;;11.07;8.73;;;5.80;1.20;;;;;;2615654;47;20485;-77
2022/03/11 03:14:00;;;;;;;13.13;9.33;;;5.80;1.00;;;;;;2615511;54;20412;-77
2022/03/11 03:16:52;;;;;;;13.53;9.30;;;5.90;1.00;;;;;;2615271;54;20438;-78
2022/03/11 03:19:18;;;;;;;13.97;9.63;;;5.90;1.00;;;;;;2615408;54;20416;-79
2022/03/11 03:21:44;;;;;;;13.80;10.40;;;6.00;1.00;;;;;;2614399;47;20448;-79
2022/03/11 03:24:09;;;;;;;12.50;10.00;;;6.00;1.00;;;;;;2615489;54;20419;-78
2022/03/11 03:26:37;;;;;;;13.27;9.83;;;6.20;1.00;;;;;;2613919;54;20181;-78
2022/03/11 03:29:05;;;;;;;13.90;10.83;;;6.20;1.00;;;;;;2615400;54;20160;-78
2022/03/11 03:31:32;;;;;;;10.33;9.23;;;6.20;1.00;;;;;;2616069;54;20415;-78
2022/03/11 03:33:59;;;;;;;18.10;9.53;;;6.20;1.00;;;;;;2616208;47;21008;-78
2022/03/11 03:36:50;;;;;;;12.23;9.53;;;6.20;1.00;;;;;;2615641;54;20412;-79
2022/03/11 03:39:16;;;;;;;14.27;11.03;;;6.10;1.00;;;;;;2615620;54;20449;-77
2022/03/11 03:42:07;;;;;;;20.30;12.23;;;6.20;1.00;;;;;;2614530;54;20420;-77
2022/03/11 03:44:58;;;;;;;13.27;9.80;;;6.30;1.00;;;;;;2616553;39;20533;-79
2022/03/11 03:47:50;;;;;;;13.27;10.63;;;6.30;1.00;;;;;;2614666;54;20411;-79
2022/03/11 03:50:16;;;;;;;13.37;10.10;;;6.30;1.00;;;;;;2616051;54;20511;-77
2022/03/11 03:52:44;;;;;;;18.93;12.10;;;6.30;1.00;;;;;;2615663;54;20484;-77
2022/03/11 03:55:11;;;;;;;19.53;12.43;;;6.40;1.00;;;;;;2615462;47;20830;-77
2022/03/11 03:57:38;;;;;;;15.43;11.07;;;6.50;1.00;;;;;;2614334;54;20953;-78
2022/03/11 04:00:06;;;;;;;12.07;10.50;;;6.60;1.00;;;;;;2613574;54;20498;-79
2022/03/11 04:02:48;;;;;;;14.30;11.07;;;6.60;1.00;;;;;;2613994;54;21015;-78
2022/03/11 04:05:14;;;;;;;14.07;10.63;;;6.60;1.00;;;;;;2614231;54;20419;-78
2022/03/11 04:07:44;;;;;;;15.90;11.57;;;6.50;1.00;;;;;;2616160;54;21014;-79
2022/03/11 04:10:12;;;;;;;15.07;11.00;;;6.50;1.00;;;;;;2615969;31;20917;-79
2022/03/11 04:12:38;;;;;;;14.20;10.67;;;6.60;1.00;;;;;;2615356;54;20420;-80
2022/03/11 04:15:07;;;;;;;15.97;10.87;;;6.50;1.00;;;;;;2616042;54;20407;-78
2022/03/11 04:18:01;;;;;;;14.00;11.13;;;6.60;1.00;;;;;;2616190;39;20888;-77
2022/03/11 04:20:29;;;;;;;16.97;11.00;;;6.60;1.00;;;;;;2614627;51;20420;-79
2022/03/11 04:22:56;;;;;;;13.23;9.80;;;6.60;1.00;;;;;;2615867;47;20504;-77
2022/03/11 04:25:23;;;;;;;14.87;10.93;;;6.70;1.00;;;;;;2614454;47;20417;-77
2022/03/11 04:28:17;;;;;;;15.13;11.00;;;6.70;1.00;;;;;;2615579;54;20420;-78
2022/03/11 04:30:43;;;;;;;16.00;12.40;;;6.70;1.00;;;;;;2614867;39;20922;-79
2022/03/11 04:33:10;;;;;;;16.20;12.40;;;6.70;1.00;;;;;;2615106;54;20414;-79
2022/03/11 04:35:59;;;;;;;16.30;11.97;;;6.70;1.00;;;;;;2614039;46;20436;-78
2022/03/11 04:38:25;;;;;;;14.77;11.20;;;6.60;1.00;;;;;;2614083;47;20434;-77
2022/03/11 04:40:50;;;;;;;14.73;11.57;;;6.60;1.00;;;;;;2615013;54;20416;-78
2022/03/11 04:43:19;;;;;;;15.57;11.00;;;6.60;1.00;;;;;;2616540;31;20638;-79
2022/03/11 04:45:46;;;;;;;15.80;11.57;;;6.60;1.00;;;;;;2615588;47;20179;-78
2022/03/11 04:48:13;;;;;;;16.80;12.30;;;6.70;1.00;;;;;;2615691;54;21059;-78
2022/03/11 04:50:40;;;;;;;14.10;11.97;;;6.60;1.00;;;;;;2612877;47;20427;-78
2022/03/11 04:53:32;;;;;;;14.03;10.83;;;6.50;1.00;;;;;;2614222;54;21356;-78
2022/03/11 04:56:26;;;;;;;15.67;11.57;;;6.40;1.00;;;;;;2615176;54;20420;-78
2022/03/11 04:58:51;;;;;;;15.43;12.73;;;6.40;1.00;;;;;;2614192;54;20404;-78
2022/03/11 05:01:17;;;;;;;17.03;12.80;;;6.40;1.00;;;;;;2613387;46;20431;-77
2022/03/11 05:03:43;;;;;;;15.00;11.83;;;6.40;1.00;;;;;;2613554;54;20152;-77
2022/03/11 05:06:09;;;;;;;20.23;13.70;;;6.30;1.00;;;;;;2614099;39;20722;-78
2022/03/11 05:08:36;;;;;;;16.97;13.07;;;6.30;1.00;;;;;;2615499;54;20407;-79
2022/03/11 05:11:02;;;;;;;19.73;13.07;;;6.20;1.00;;;;;;2614496;47;20462;-78
2022/03/11 05:13:27;;;;;;;18.57;13.10;;;6.30;1.00;;;;;;2614638;47;20519;-78
2022/03/11 05:15:53;;;;;;;17.37;12.80;;;6.30;1.00;;;;;;2613391;54;20180;-79
2022/03/11 05:18:20;;;;;;;17.00;13.30;;;6.30;1.00;;;;;;2615327;54;20143;-78
2022/03/11 05:20:46;;;;;;;19.40;14.07;;;6.40;1.00;;;;;;2614372;46;20182;-78
2022/03/11 05:23:12;;;;;;;19.13;13.40;;;6.40;1.00;;;;;;2616387;31;20853;-79
2022/03/11 05:25:38;;;;;;;17.17;12.87;;;6.30;1.00;;;;;;2614408;54;20407;-78
2022/03/11 05:28:05;;;;;;;18.07;13.33;;;6.20;1.00;;;;;;2615034;54;20420;-78
2022/03/11 05:30:32;;;;;;;22.93;14.13;;;6.20;1.00;;;;;;2614768;54;20427;-78
2022/03/11 05:32:58;;;;;;;19.50;13.93;;;6.20;1.00;;;;;;2614533;54;20406;-78
2022/03/11 05:35:25;;;;;;;15.67;12.60;;;6.10;1.00;;;;;;2616047;54;20502;-78
2022/03/11 05:37:54;;;;;;;21.30;14.43;;;6.10;1.00;;;;;;2617008;54;20170;-78
2022/03/11 05:40:20;;;;;;;20.40;14.70;;;6.10;1.00;;;;;;2616277;54;20977;-78
2022/03/11 05:42:47;;;;;;;19.47;14.20;;;6.00;1.00;;;;;;2616112;47;20971;-79
2022/03/11 05:45:13;;;;;;;24.67;16.50;;;6.00;1.00;;;;;;2615483;54;20375;-79
2022/03/11 05:47:39;;;;;;;21.83;15.47;;;6.00;1.00;;;;;;2615938;54;20277;-79
2022/03/11 05:50:06;;;;;;;21.10;14.90;;;5.90;1.00;;;;;;2615851;54;20266;-78
2022/03/11 05:52:36;;;;;;;21.40;15.40;;;5.90;1.00;;;;;;2614529;54;20416;-78
2022/03/11 05:55:03;;;;;;;17.03;13.10;;;5.90;1.00;;;;;;2614266;46;20434;-79
2022/03/11 05:57:29;;;;;;;25.60;14.87;;;5.90;1.00;;;;;;2614546;53;20442;-78
2022/03/11 05:59:55;;;;;;;17.90;13.80;;;5.90;1.00;;;;;;2615875;54;21253;-78
2022/03/11 06:02:22;;;;;;;20.93;15.87;;;5.90;1.00;;;;;;2614219;54;20254;-77
2022/03/11 06:04:48;;;;;;;19.40;13.93;;;5.90;1.00;;;;;;2616357;51;20254;-78
2022/03/11 06:07:41;;;;;;;24.73;14.63;;;6.00;1.00;;;;;;2616929;54;20986;-79
2022/03/11 06:10:08;;;;;;;21.87;14.33;;;6.00;1.00;;;;;;2615552;54;20303;-78
2022/03/11 06:12:34;;;;;;;22.23;16.50;;;6.00;1.00;;;;;;2615605;39;21544;-78
2022/03/11 06:15:11;;;;;;;18.07;14.83;;;5.90;1.00;;;;;;2613246;47;20526;-78
2022/03/11 06:17:37;;;;;;;20.20;15.80;;;5.90;1.00;;;;;;2614541;54;20392;-78
2022/03/11 06:20:04;;;;;;;21.53;14.37;;;5.70;1.00;;;;;;2616087;54;20652;-78
2022/03/11 06:22:31;;;;;;;21.13;14.67;;;5.90;1.00;;;;;;2616046;46;20499;-79
2022/03/11 06:25:23;;;;;;;22.87;16.03;;;5.90;1.00;;;;;;2615218;46;20415;-80
2022/03/11 06:27:49;;;;;;;19.60;14.60;;;5.90;1.00;;;;;;2614815;54;21075;-80
2022/03/11 06:30:15;;;;;;;21.77;15.73;;;5.90;1.00;;;;;;2613912;47;20602;-80
2022/03/11 06:32:46;;;;;;;18.60;16.70;;;5.90;1.00;;;;;;2614678;54;20269;-80
2022/03/11 06:35:39;;;;;;;23.53;16.00;;;6.00;1.00;;;;;;2613688;47;20408;-80
2022/03/11 06:38:07;;;;;;;19.97;14.60;;;6.00;1.00;;;;;;2613271;46;20404;-80
2022/03/11 06:40:33;;;;;;;21.47;15.67;;;6.00;1.00;;;;;;2612731;46;20427;-80
2022/03/11 06:43:11;;;;;;;24.70;15.40;;;6.00;1.00;;;;;;2612668;39;20790;-79
2022/03/11 06:45:38;;;;;;;20.60;13.37;;;6.20;1.00;;;;;;2613341;47;20419;-79
2022/03/11 06:48:32;;;;;;;19.67;16.80;;;6.50;1.00;;;;;;2613992;47;20441;-79
2022/03/11 06:51:04;;;;;;;26.80;16.97;;;6.90;1.00;;;;;;2612755;54;20411;-80
2022/03/11 06:53:31;;;;;;;23.90;16.40;;;7.10;1.00;;;;;;2613885;54;22212;-80
2022/03/11 06:56:00;;;;;;;22.47;17.03;;;7.20;1.00;;;;;;2630751;36;20460;-81
2022/03/11 06:58:28;;;;;;;26.60;17.50;;;7.20;1.00;;;;;;2612972;47;20588;-79
2022/03/11 07:00:54;;;;;;;23.60;15.73;;;7.10;1.00;;;;;;2611079;54;20450;-80
2022/03/11 07:03:20;;;;;;;25.00;16.00;;;7.10;1.00;;;;;;2613262;54;21040;-81
2022/03/11 07:05:47;;;;;;;24.77;17.60;;;7.30;1.00;;;;;;2614458;54;20404;-79
2022/03/11 07:08:15;;;;;;;21.50;14.87;;;7.50;1.00;;;;;;2612825;47;20953;-80
2022/03/11 07:10:41;;;;;;;19.13;15.63;;;7.70;1.00;;;;;;2612336;54;20492;-81
2022/03/11 07:13:07;;;;;;;20.47;15.37;;;8.00;1.00;;;;;;2611275;54;20529;-81
2022/03/11 07:15:33;;;;;;;19.90;15.60;;;8.20;1.00;;;;;;2613147;47;20260;-80
2022/03/11 07:17:59;;;;;;;23.50;17.40;;;8.20;1.00;;;;;;2612816;54;20149;-80
2022/03/11 07:20:26;;;;;;;25.90;18.07;;;8.40;1.00;;;;;;2612172;47;20514;-82
2022/03/11 07:22:51;;;;;;;21.87;16.10;;;8.70;1.00;;;;;;2612720;47;20416;-81
2022/03/11 07:25:18;;;;;;;26.30;16.90;;;8.70;1.00;;;;;;2612474;31;20958;-79
2022/03/11 07:27:45;;;;;;;23.77;17.27;;;8.80;1.00;;;;;;2612863;47;20157;-80
2022/03/11 07:30:12;;;;;;;22.17;16.87;;;8.90;1.00;;;;;;2611089;47;20471;-78
2022/03/11 07:32:39;;;;;;;30.40;18.00;;;9.10;1.00;;;;;;2610797;54;20422;-80
2022/03/11 07:35:06;;;;;;;24.30;17.50;;;9.40;1.00;;;;;;2612786;51;20450;-82
2022/03/11 07:37:31;;;;;;;24.97;16.03;;;9.20;1.00;;;;;;2612198;47;20546;-81
2022/03/11 07:39:58;;;;;;;22.70;16.90;;;9.30;1.00;;;;;;2613373;54;20412;-82
2022/03/11 07:42:25;;;;;;;25.60;16.20;;;9.30;1.00;;;;;;2613081;54;20418;-81
2022/03/11 07:44:51;;;;;;;21.80;17.17;;;9.40;1.00;;;;;;2612797;51;20433;-80
2022/03/11 07:47:17;;;;;;;24.90;19.23;;;9.40;1.00;;;;;;2613185;47;20456;-82
2022/03/11 07:49:43;;;;;;;23.27;17.30;;;9.70;1.00;;;;;;2613493;47;20713;-78
2022/03/11 07:52:15;;;;;;;21.47;16.93;;;10.20;1.00;;;;;;2612675;47;20425;-81
2022/03/11 07:54:42;;;;;;;18.30;15.00;;;10.30;1.00;;;;;;2613603;46;20462;-82
2022/03/11 07:57:09;;;;;;;23.67;16.70;;;10.40;1.00;;;;;;2613712;54;20430;-83
2022/03/11 07:59:37;;;;;;;27.00;17.27;;;10.30;1.00;;;;;;2612468;54;20438;-78
2022/03/11 08:02:04;;;;;;;24.50;17.37;;;10.50;1.00;;;;;;2613470;54;20446;-81
2022/03/11 08:04:30;;;;;;;25.90;17.50;;;10.60;1.00;;;;;;2613056;54;20426;-82
2022/03/11 08:07:06;;;;;;;24.90;16.80;;;10.40;1.00;;;;;;2613989;54;20403;-79
2022/03/11 08:09:34;;;;;;;24.87;16.67;;;10.60;1.00;;;;;;2613411;47;20431;-81
2022/03/11 08:11:59;;;;;;;24.87;18.13;;;10.60;1.00;;;;;;2613027;47;20481;-81
2022/03/11 08:14:26;;;;;;;23.40;17.90;;;11.00;1.00;;;;;;2612346;54;20941;-81
2022/03/11 08:16:52;;;;;;;19.60;16.47;;;10.70;1.00;;;;;;2614058;46;20173;-82
2022/03/11 08:19:18;;;;;;;23.97;17.13;;;10.70;1.00;;;;;;2615619;54;20421;-83
2022/03/11 08:21:46;;;;;;;22.00;17.57;;;10.80;1.00;;;;;;2616081;54;20438;-82
2022/03/11 08:24:13;;;;;;;18.90;16.20;;;11.30;1.00;;;;;;2616419;47;20163;-82
2022/03/11 08:26:39;;;;;;;28.60;19.83;;;11.60;1.00;;;;;;2613331;54;20423;-82
2022/03/11 08:29:08;;;;;;;25.90;18.03;;;11.60;1.00;;;;;;2612226;54;20419;-81
2022/03/11 08:31:34;;;;;;;21.33;18.13;;;11.70;1.00;;;;;;2613310;54;20159;-83
2022/03/11 08:34:00;;;;;;;27.67;16.63;;;11.90;1.00;;;;;;2614431;47;21035;-80
2022/03/11 08:36:26;;;;;;;22.00;18.27;;;11.90;1.00;;;;;;2613522;54;20450;-80
2022/03/11 08:38:51;;;;;;;19.57;16.60;;;11.90;1.00;;;;;;2611919;54;20431;-82
2022/03/11 08:41:19;;;;;;;20.43;15.33;;;11.80;1.00;;;;;;2612730;54;20251;-81
2022/03/11 08:43:49;;;;;;;23.30;16.90;;;11.90;1.00;;;;;;2612780;51;20166;-82
2022/03/11 08:46:15;;;;;;;22.20;16.80;;;12.10;1.00;;;;;;2612949;39;20852;-81
2022/03/11 08:48:44;;;;;;;25.50;17.30;;;12.10;1.00;;;;;;2614964;54;20431;-82
2022/03/11 08:51:09;;;;;;;23.43;18.30;;;12.50;1.00;;;;;;2613594;47;20434;-82
2022/03/11 08:53:36;;;;;;;21.77;17.07;;;12.60;1.00;;;;;;2614269;54;20411;-80
2022/03/11 08:56:02;;;;;;;20.03;17.83;;;12.40;1.00;;;;;;2614443;54;20408;-80
2022/03/11 08:58:29;;;;;;;22.70;17.03;;;12.60;1.00;;;;;;2613891;54;20446;-81
2022/03/11 09:00:55;;;;;;;22.33;17.40;;;12.70;1.00;;;;;;2613356;54;20538;-79
2022/03/11 09:03:24;;;;;;;22.10;17.53;;;13.00;1.00;;;;;;2614352;39;20844;-83
2022/03/11 09:05:50;;;;;;;20.67;17.57;;;12.80;1.00;;;;;;2613658;54;20412;-82
2022/03/11 09:08:17;;;;;;;24.93;19.17;;;12.50;1.00;;;;;;2612879;54;20701;-82
2022/03/11 09:10:43;;;;;;;23.20;19.00;;;12.30;1.00;;;;;;2613200;54;20451;-82
2022/03/11 09:13:10;;;;;;;19.80;17.20;;;12.40;1.00;;;;;;2613404;47;20424;-82
2022/03/11 09:15:36;;;;;;;20.80;18.00;;;12.90;1.00;;;;;;2613285;54;20472;-81
2022/03/11 09:18:02;;;;;;;20.33;16.53;;;13.40;1.00;;;;;;2614326;47;20431;-82
2022/03/11 09:20:29;;;;;;;19.50;17.10;;;13.50;1.00;;;;;;2613689;47;20413;-83
2022/03/11 09:22:55;;;;;;;24.37;17.57;;;13.10;1.00;;;;;;2612571;47;20535;-81
2022/03/11 09:25:25;;;;;;;21.53;19.23;;;12.90;1.00;;;;;;2613714;54;20446;-82
2022/03/11 09:27:52;;;;;;;18.83;16.80;;;12.80;1.00;;;;;;2612733;47;20432;-81
2022/03/11 09:30:18;;;;;;;21.23;17.00;;;12.90;1.00;;;;;;2612832;39;20818;-82
2022/03/11 09:32:45;;;;;;;20.10;18.00;;;12.90;1.00;;;;;;2612816;47;20416;-83
2022/03/11 09:35:12;;;;;;;21.67;17.97;;;12.70;1.00;;;;;;2612709;54;20430;-81
2022/03/11 09:37:39;;;;;;;20.90;18.13;;;12.90;1.00;;;;;;2612912;47;20421;-79
2022/03/11 09:40:06;;;;;;;20.73;18.63;;;13.40;1.00;;;;;;2648565;36;20578;-80
2022/03/11 09:42:32;;;;;;;26.13;20.10;;;14.10;1.00;;;;;;2612272;54;20458;-83
2022/03/11 09:44:58;;;;;;;19.50;17.60;;;14.20;1.00;;;;;;2613966;54;20407;-82
2022/03/11 09:47:24;;;;;;;23.40;18.60;;;14.40;1.00;;;;;;2614052;54;20297;-83
2022/03/11 09:49:51;;;;;;;19.00;17.00;;;14.90;1.00;;;;;;2614383;54;20503;-82
2022/03/11 09:52:20;;;;;;;19.90;17.80;;;14.70;1.00;;;;;;2614316;47;20411;-82
2022/03/11 09:55:13;;;;;;;21.27;19.20;;;14.60;1.00;;;;;;2614926;54;20412;-83
2022/03/11 09:57:40;;;;;;;20.40;18.30;;;14.30;1.00;;;;;;2613408;46;20550;-82
2022/03/11 10:00:10;;;;;;;20.90;18.80;;;13.90;1.00;;;;;;2612707;54;21415;-82
2022/03/11 10:03:05;;;;;;;24.40;20.27;;;13.80;1.00;;;;;;2612377;54;20407;-83
2022/03/11 10:05:50;;;;;;;19.10;16.57;;;13.90;1.00;;;;;;2613938;47;20415;-81
2022/03/11 10:08:28;;;;;;;20.20;18.20;;;13.90;1.00;;;;;;2612752;54;20423;-82
2022/03/11 10:10:54;;;;;;;20.70;18.60;;;14.50;1.00;;;;;;2614275;47;20451;-83
2022/03/11 10:13:20;;;;;;;20.17;18.07;;;15.10;1.00;;;;;;2613437;39;20949;-82
2022/03/11 10:15:46;;;;;;;20.40;18.30;;;14.60;1.00;;;;;;2612534;46;20359;-82
2022/03/11 10:18:12;;;;;;;17.27;15.60;;;14.30;1.00;;;;;;2612457;47;20177;-82
2022/03/11 10:20:38;;;;;;;21.43;19.20;;;14.30;1.00;;;;;;2611987;54;20156;-83
2022/03/11 10:23:46;;;;;;;23.73;19.10;;;14.40;1.00;;;;;;2612442;54;20392;-83
2022/03/11 10:26:14;;;;;;;19.20;17.20;;;14.30;1.00;;;;;;2611944;51;20449;-83
2022/03/11 10:28:41;;;;;;;20.87;18.67;;;14.20;1.00;;;;;;2612413;47;20534;-83
2022/03/11 10:31:10;;;;;;;22.63;19.20;;;14.60;1.00;;;;;;2612627;54;20557;-82
2022/03/11 10:34:14;;;;;;;20.13;17.93;;;14.70;1.00;;;;;;2612579;51;20412;-82
2022/03/11 10:36:55;;;;;;;19.63;17.63;;;15.20;1.00;;;;;;2612209;54;20953;-81
2022/03/11 10:39:28;;;;;;;18.90;16.87;;;15.30;1.00;;;;;;2612265;54;20427;-82
2022/03/11 10:42:12;;;;;;;20.43;18.47;;;15.10;1.00;;;;;;2612734;51;21197;-84
2022/03/11 10:44:40;;;;;;;27.93;20.27;;;15.40;1.00;;;;;;2612960;54;20450;-84
2022/03/11 10:47:23;;;;;;;20.40;18.40;;;15.80;1.00;;;;;;2612303;39;21447;-81
2022/03/11 10:49:55;;;;;;;19.83;18.10;;;15.70;1.00;;;;;;2612617;54;20409;-83
2022/03/11 10:52:48;;;;;;;21.77;19.63;;;15.90;1.00;;;;;;2613230;54;20420;-84
2022/03/11 10:55:33;;;;;;;21.83;18.87;;;15.30;1.00;;;;;;2611873;54;20419;-83
2022/03/11 10:58:06;;;;;;;22.03;19.93;;;15.50;1.00;;;;;;2613707;47;20919;-83
2022/03/11 11:00:37;;;;;;;20.20;18.23;;;15.90;1.00;;;;;;2612476;47;20427;-84
2022/03/11 11:03:08;;;;;;;19.07;17.20;;;15.80;1.00;;;;;;2613971;47;20416;-81
2022/03/11 11:05:37;;;;;;;20.03;18.07;;;15.90;1.00;;;;;;2612543;47;20478;-82
2022/03/11 11:08:05;;;;;;;20.90;18.60;;;16.10;1.00;;;;;;2612442;47;20415;-82
2022/03/11 11:10:34;;;;;;;19.70;17.60;;;16.20;1.00;;;;;;2611063;47;20455;-82
2022/03/11 11:13:00;;;;;;;19.63;17.63;;;15.80;1.00;;;;;;2613379;54;20423;-81
2022/03/11 11:15:28;;;;;;;19.70;17.90;;;16.20;1.00;;;;;;2614671;47;20483;-82
2022/03/11 11:17:55;;;;;;;21.30;19.07;;;16.20;1.00;;;;;;2616149;31;20838;-83
2022/03/11 11:20:33;;;;;;;19.27;17.10;;;16.70;1.00;;;;;;2615569;54;20454;-82
2022/03/11 11:23:03;;;;;;;21.00;17.80;;;16.30;1.00;;;;;;2614691;54;20395;-78
2022/03/11 11:25:29;;;;;;;22.00;19.90;;;15.80;1.00;;;;;;2615112;54;20426;-83
2022/03/11 11:28:00;;;;;;;20.47;18.57;;;16.20;1.00;;;;;;2615337;31;20857;-81
2022/03/11 11:30:26;;;;;;;19.83;18.03;;;17.10;1.00;;;;;;2615563;54;20403;-82
2022/03/11 11:32:55;;;;;;;21.67;19.43;;;17.60;1.00;;;;;;2614881;47;20518;-82
2022/03/11 11:35:33;;;;;;;24.40;20.67;;;18.00;1.00;;;;;;2616116;54;20432;-83
2022/03/11 11:38:05;;;;;;;22.80;20.53;;;18.40;1.00;;;;;;2615421;47;20531;-83
2022/03/11 11:40:37;;;;;;;20.57;18.83;;;18.40;1.00;;;;;;2616558;54;21487;-83
2022/03/11 11:43:26;;;;;;;21.53;19.33;;;18.30;1.00;;;;;;2615499;46;20412;-82
2022/03/11 11:45:56;;;;;;;21.83;19.93;;;18.30;1.00;;;;;;2614750;47;20421;-83
2022/03/11 11:51:04;;;;;;;23.77;21.37;;;18.90;1.00;;;;;;2615967;54;20419;-81
2022/03/11 11:53:43;;;;;;;20.90;18.80;;;18.50;1.00;;;;;;2614982;47;20511;-83
2022/03/11 11:56:32;;;;;;;22.23;19.90;;;17.90;1.00;;;;;;2614669;47;20418;-82
2022/03/11 11:59:18;;;;;;;22.33;20.30;;;17.30;1.00;;;;;;2616026;47;20409;-81
2022/03/11 12:01:45;;;;;;;23.00;20.70;;;17.40;1.00;;;;;;2615534;39;20772;-82
2022/03/11 12:04:33;;;;;;;22.67;20.40;;;17.50;1.00;;;;;;2615781;54;20404;-83
2022/03/11 12:07:14;;;;;;;20.40;18.53;;;17.80;1.00;;;;;;2614640;54;20404;-81
2022/03/11 12:10:04;;;;;;;22.53;20.43;;;17.60;1.00;;;;;;2615828;50;20427;-82
2022/03/11 12:12:44;;;;;;;22.20;20.10;;;18.00;1.00;;;;;;2615627;46;20551;-80
2022/03/11 12:15:19;;;;;;;20.10;18.30;;;18.00;1.00;;;;;;2615855;54;20423;-84
2022/03/11 12:17:59;;;;;;;21.83;19.77;;;17.80;1.00;;;;;;2613892;47;20422;-80
2022/03/11 12:20:35;;;;;;;20.37;18.47;;;17.30;1.00;;;;;;2615559;47;20428;-83
2022/03/11 12:23:19;;;;;;;22.73;20.53;;;17.00;1.00;;;;;;2615132;39;20843;-84
2022/03/11 12:25:57;;;;;;;20.57;18.57;;;17.20;1.00;;;;;;2615388;47;20435;-84
2022/03/11 12:28:41;;;;;;;22.10;18.83;;;17.30;1.00;;;;;;2615684;54;20403;-82
2022/03/11 12:31:09;;;;;;;23.10;19.47;;;17.30;1.00;;;;;;2613967;54;20462;-83
2022/03/11 12:33:46;;;;;;;20.70;17.57;;;17.10;1.00;;;;;;2617593;54;20418;-83
2022/03/11 12:36:21;;;;;;;22.70;19.07;;;17.60;1.00;;;;;;2616946;54;20458;-81
2022/03/11 12:38:47;;;;;;;22.33;20.10;;;18.10;1.00;;;;;;2615722;47;20451;-84
2022/03/11 12:41:21;;;;;;;21.30;18.30;;;17.80;1.00;;;;;;2615697;47;21003;-83
2022/03/11 12:43:49;;;;;;;20.40;18.30;;;18.10;1.00;;;;;;2615780;46;20498;-83
2022/03/11 12:46:15;;;;;;;20.50;18.70;;;18.60;1.00;;;;;;2616663;31;20953;-83
2022/03/11 12:48:44;;;;;;;17.70;16.10;;;18.80;1.00;;;;;;2616082;54;20408;-84
2022/03/11 12:51:21;;;;;;;20.77;18.77;;;18.90;1.00;;;;;;2617004;54;20980;-86
2022/03/11 12:53:50;;;;;;;22.30;18.47;;;18.60;1.00;;;;;;2616243;47;20412;-81
2022/03/11 12:56:22;;;;;;;20.17;18.10;;;18.50;1.00;;;;;;2617069;54;21054;-86
2022/03/11 12:58:49;;;;;;;19.47;17.60;;;18.30;1.00;;;;;;2616471;54;20440;-82